sensor_id;sensor_type;location;lat;lon;timestamp;P1;durP1;ratioP1;P2;durP2;ratioP2
249;SDS011;109;19.806;-70.704;2022-07-29T00:01:53;25.60;;;4.53;;
249;SDS011;109;19.806;-70.704;2022-07-29T00:04:19;32.67;;;5.30;;
249;SDS011;109;19.806;-70.704;2022-07-29T00:06:46;18.73;;;4.30;;
249;SDS011;109;19.806;-70.704;2022-07-29T00:09:12;28.27;;;4.67;;
249;SDS011;109;19.806;-70.704;2022-07-29T00:11:39;31.87;;;5.30;;
249;SDS011;109;19.806;-70.704;2022-07-29T00:14:05;24.33;;;5.40;;
249;SDS011;109;19.806;-70.704;2022-07-29T00:16:32;24.80;;;5.40;;
249;SDS011;109;19.806;-70.704;2022-07-29T00:18:58;30.43;;;5.10;;
249;SDS011;109;19.806;-70.704;2022-07-29T00:21:24;36.23;;;5.47;;
249;SDS011;109;19.806;-70.704;2022-07-29T00:23:51;34.17;;;6.50;;
249;SDS011;109;19.806;-70.704;2022-07-29T00:26:17;29.97;;;6.10;;
249;SDS011;109;19.806;-70.704;2022-07-29T00:28:44;21.67;;;4.47;;
249;SDS011;109;19.806;-70.704;2022-07-29T00:31:10;29.10;;;5.43;;
249;SDS011;109;19.806;-70.704;2022-07-29T00:33:36;28.03;;;6.23;;
249;SDS011;109;19.806;-70.704;2022-07-29T00:36:03;36.27;;;6.90;;
249;SDS011;109;19.806;-70.704;2022-07-29T00:38:30;24.20;;;5.67;;
249;SDS011;109;19.806;-70.704;2022-07-29T00:40:56;25.80;;;7.43;;
249;SDS011;109;19.806;-70.704;2022-07-29T00:43:23;27.40;;;4.97;;
249;SDS011;109;19.806;-70.704;2022-07-29T00:45:49;17.93;;;4.87;;
249;SDS011;109;19.806;-70.704;2022-07-29T00:48:15;26.87;;;4.23;;
249;SDS011;109;19.806;-70.704;2022-07-29T00:50:42;16.57;;;4.47;;
249;SDS011;109;19.806;-70.704;2022-07-29T00:53:08;26.60;;;5.20;;
249;SDS011;109;19.806;-70.704;2022-07-29T00:55:37;18.63;;;4.47;;
249;SDS011;109;19.806;-70.704;2022-07-29T00:58:04;24.47;;;5.10;;
249;SDS011;109;19.806;-70.704;2022-07-29T01:00:31;26.70;;;5.53;;
249;SDS011;109;19.806;-70.704;2022-07-29T01:02:58;29.30;;;6.17;;
249;SDS011;109;19.806;-70.704;2022-07-29T01:05:25;34.40;;;6.63;;
249;SDS011;109;19.806;-70.704;2022-07-29T01:07:54;27.33;;;5.73;;
249;SDS011;109;19.806;-70.704;2022-07-29T01:10:23;22.60;;;5.17;;
249;SDS011;109;19.806;-70.704;2022-07-29T01:12:51;27.97;;;5.27;;
249;SDS011;109;19.806;-70.704;2022-07-29T01:15:20;32.27;;;5.40;;
249;SDS011;109;19.806;-70.704;2022-07-29T01:17:58;30.67;;;5.70;;
249;SDS011;109;19.806;-70.704;2022-07-29T01:26:27;20.67;;;5.00;;
249;SDS011;109;19.806;-70.704;2022-07-29T01:32:03;15.73;;;5.27;;
249;SDS011;109;19.806;-70.704;2022-07-29T01:34:35;16.67;;;5.23;;
249;SDS011;109;19.806;-70.704;2022-07-29T01:37:19;16.30;;;5.30;;
249;SDS011;109;19.806;-70.704;2022-07-29T01:39:55;15.63;;;5.10;;
249;SDS011;109;19.806;-70.704;2022-07-29T01:42:42;24.87;;;6.10;;
249;SDS011;109;19.806;-70.704;2022-07-29T01:50:58;17.23;;;5.80;;
249;SDS011;109;19.806;-70.704;2022-07-29T01:53:46;15.37;;;5.37;;
249;SDS011;109;19.806;-70.704;2022-07-29T01:56:28;12.57;;;5.07;;
249;SDS011;109;19.806;-70.704;2022-07-29T01:59:06;20.33;;;5.00;;
249;SDS011;109;19.806;-70.704;2022-07-29T02:01:35;15.43;;;4.40;;
249;SDS011;109;19.806;-70.704;2022-07-29T02:04:10;15.57;;;5.03;;
249;SDS011;109;19.806;-70.704;2022-07-29T02:06:38;13.67;;;5.00;;
249;SDS011;109;19.806;-70.704;2022-07-29T02:09:13;16.30;;;4.57;;
249;SDS011;109;19.806;-70.704;2022-07-29T02:11:42;17.97;;;4.70;;
249;SDS011;109;19.806;-70.704;2022-07-29T02:14:28;41.13;;;6.60;;
249;SDS011;109;19.806;-70.704;2022-07-29T02:17:05;21.60;;;5.83;;
249;SDS011;109;19.806;-70.704;2022-07-29T02:19:33;19.90;;;5.40;;
249;SDS011;109;19.806;-70.704;2022-07-29T02:22:09;26.23;;;5.80;;
249;SDS011;109;19.806;-70.704;2022-07-29T02:24:37;23.60;;;5.97;;
249;SDS011;109;19.806;-70.704;2022-07-29T02:27:19;23.40;;;5.87;;
249;SDS011;109;19.806;-70.704;2022-07-29T02:30:02;20.50;;;5.27;;
249;SDS011;109;19.806;-70.704;2022-07-29T02:32:44;19.13;;;6.10;;
249;SDS011;109;19.806;-70.704;2022-07-29T02:35:12;23.07;;;5.80;;
249;SDS011;109;19.806;-70.704;2022-07-29T02:37:54;20.63;;;5.40;;
249;SDS011;109;19.806;-70.704;2022-07-29T02:40:46;16.87;;;5.70;;
249;SDS011;109;19.806;-70.704;2022-07-29T02:43:27;26.90;;;6.77;;
249;SDS011;109;19.806;-70.704;2022-07-29T02:45:56;20.50;;;5.87;;
249;SDS011;109;19.806;-70.704;2022-07-29T02:48:40;26.10;;;6.67;;
249;SDS011;109;19.806;-70.704;2022-07-29T02:51:17;20.83;;;5.50;;
249;SDS011;109;19.806;-70.704;2022-07-29T02:54:05;26.10;;;5.37;;
249;SDS011;109;19.806;-70.704;2022-07-29T02:56:41;16.40;;;5.40;;
249;SDS011;109;19.806;-70.704;2022-07-29T02:59:26;20.47;;;4.77;;
249;SDS011;109;19.806;-70.704;2022-07-29T03:01:55;15.37;;;4.87;;
249;SDS011;109;19.806;-70.704;2022-07-29T03:04:36;17.80;;;5.27;;
249;SDS011;109;19.806;-70.704;2022-07-29T03:07:21;17.70;;;5.27;;
249;SDS011;109;19.806;-70.704;2022-07-29T03:09:48;11.60;;;4.90;;
249;SDS011;109;19.806;-70.704;2022-07-29T03:12:29;15.20;;;5.30;;
249;SDS011;109;19.806;-70.704;2022-07-29T03:14:56;21.80;;;5.80;;
249;SDS011;109;19.806;-70.704;2022-07-29T03:17:38;15.57;;;4.70;;
249;SDS011;109;19.806;-70.704;2022-07-29T03:20:06;14.53;;;4.83;;
249;SDS011;109;19.806;-70.704;2022-07-29T03:22:47;22.17;;;4.63;;
249;SDS011;109;19.806;-70.704;2022-07-29T03:25:14;16.13;;;5.13;;
249;SDS011;109;19.806;-70.704;2022-07-29T03:28:02;20.63;;;5.07;;
249;SDS011;109;19.806;-70.704;2022-07-29T03:30:36;15.73;;;4.80;;
249;SDS011;109;19.806;-70.704;2022-07-29T03:33:16;17.43;;;5.57;;
249;SDS011;109;19.806;-70.704;2022-07-29T03:35:42;20.93;;;5.30;;
249;SDS011;109;19.806;-70.704;2022-07-29T03:38:23;20.00;;;6.13;;
249;SDS011;109;19.806;-70.704;2022-07-29T03:41:01;20.40;;;6.00;;
249;SDS011;109;19.806;-70.704;2022-07-29T03:43:46;22.50;;;5.80;;
249;SDS011;109;19.806;-70.704;2022-07-29T03:46:15;16.33;;;5.23;;
249;SDS011;109;19.806;-70.704;2022-07-29T03:48:57;15.10;;;5.70;;
249;SDS011;109;19.806;-70.704;2022-07-29T03:51:35;25.37;;;6.10;;
249;SDS011;109;19.806;-70.704;2022-07-29T03:54:22;19.60;;;6.33;;
249;SDS011;109;19.806;-70.704;2022-07-29T03:56:55;17.70;;;5.20;;
249;SDS011;109;19.806;-70.704;2022-07-29T03:59:40;29.13;;;6.47;;
249;SDS011;109;19.806;-70.704;2022-07-29T04:02:21;30.77;;;6.40;;
249;SDS011;109;19.806;-70.704;2022-07-29T04:04:48;22.03;;;6.30;;
249;SDS011;109;19.806;-70.704;2022-07-29T04:07:28;22.80;;;6.17;;
249;SDS011;109;19.806;-70.704;2022-07-29T04:09:55;24.53;;;6.40;;
249;SDS011;109;19.806;-70.704;2022-07-29T04:12:35;19.30;;;5.57;;
249;SDS011;109;19.806;-70.704;2022-07-29T04:15:02;14.20;;;4.67;;
249;SDS011;109;19.806;-70.704;2022-07-29T04:17:44;14.40;;;4.50;;
249;SDS011;109;19.806;-70.704;2022-07-29T04:20:10;18.73;;;4.80;;
249;SDS011;109;19.806;-70.704;2022-07-29T04:22:50;6.23;;;3.60;;
249;SDS011;109;19.806;-70.704;2022-07-29T04:25:16;13.73;;;3.97;;
249;SDS011;109;19.806;-70.704;2022-07-29T04:28:04;14.17;;;4.27;;
249;SDS011;109;19.806;-70.704;2022-07-29T04:30:44;15.53;;;3.80;;
249;SDS011;109;19.806;-70.704;2022-07-29T04:33:24;16.97;;;3.70;;
249;SDS011;109;19.806;-70.704;2022-07-29T04:35:50;14.97;;;3.60;;
249;SDS011;109;19.806;-70.704;2022-07-29T04:38:30;10.60;;;3.60;;
249;SDS011;109;19.806;-70.704;2022-07-29T04:40:57;8.17;;;3.30;;
249;SDS011;109;19.806;-70.704;2022-07-29T04:43:37;15.37;;;3.13;;
249;SDS011;109;19.806;-70.704;2022-07-29T04:46:03;10.40;;;3.60;;
249;SDS011;109;19.806;-70.704;2022-07-29T04:48:45;9.73;;;4.03;;
249;SDS011;109;19.806;-70.704;2022-07-29T04:51:13;15.03;;;4.30;;
249;SDS011;109;19.806;-70.704;2022-07-29T04:53:54;10.40;;;4.17;;
249;SDS011;109;19.806;-70.704;2022-07-29T04:56:27;18.13;;;4.20;;
249;SDS011;109;19.806;-70.704;2022-07-29T04:59:06;8.10;;;3.73;;
249;SDS011;109;19.806;-70.704;2022-07-29T05:01:32;10.73;;;3.60;;
249;SDS011;109;19.806;-70.704;2022-07-29T05:04:12;10.77;;;3.67;;
249;SDS011;109;19.806;-70.704;2022-07-29T05:06:38;8.40;;;3.20;;
249;SDS011;109;19.806;-70.704;2022-07-29T05:09:18;7.80;;;3.17;;
249;SDS011;109;19.806;-70.704;2022-07-29T05:11:44;5.93;;;2.60;;
249;SDS011;109;19.806;-70.704;2022-07-29T05:14:24;7.70;;;2.73;;
249;SDS011;109;19.806;-70.704;2022-07-29T05:16:50;10.80;;;2.60;;
249;SDS011;109;19.806;-70.704;2022-07-29T05:19:30;11.80;;;2.90;;
249;SDS011;109;19.806;-70.704;2022-07-29T05:21:57;5.23;;;2.60;;
249;SDS011;109;19.806;-70.704;2022-07-29T05:24:37;3.73;;;2.40;;
249;SDS011;109;19.806;-70.704;2022-07-29T05:27:23;6.03;;;2.57;;
249;SDS011;109;19.806;-70.704;2022-07-29T05:30:11;9.33;;;2.63;;
249;SDS011;109;19.806;-70.704;2022-07-29T05:32:51;11.83;;;2.90;;
249;SDS011;109;19.806;-70.704;2022-07-29T05:35:17;7.10;;;2.50;;
249;SDS011;109;19.806;-70.704;2022-07-29T05:37:58;11.07;;;2.83;;
249;SDS011;109;19.806;-70.704;2022-07-29T05:40:24;11.33;;;3.20;;
249;SDS011;109;19.806;-70.704;2022-07-29T05:43:04;8.43;;;3.13;;
249;SDS011;109;19.806;-70.704;2022-07-29T05:45:30;6.60;;;3.07;;
249;SDS011;109;19.806;-70.704;2022-07-29T05:48:10;7.17;;;3.07;;
249;SDS011;109;19.806;-70.704;2022-07-29T05:50:37;7.80;;;3.10;;
249;SDS011;109;19.806;-70.704;2022-07-29T05:53:17;11.87;;;3.50;;
249;SDS011;109;19.806;-70.704;2022-07-29T05:55:43;8.50;;;3.17;;
249;SDS011;109;19.806;-70.704;2022-07-29T05:58:32;4.43;;;2.60;;
249;SDS011;109;19.806;-70.704;2022-07-29T06:01:05;6.30;;;2.80;;
249;SDS011;109;19.806;-70.704;2022-07-29T06:03:45;16.73;;;4.10;;
249;SDS011;109;19.806;-70.704;2022-07-29T06:06:11;21.67;;;4.37;;
249;SDS011;109;19.806;-70.704;2022-07-29T06:08:51;18.40;;;3.47;;
249;SDS011;109;19.806;-70.704;2022-07-29T06:11:17;18.93;;;4.00;;
249;SDS011;109;19.806;-70.704;2022-07-29T06:13:58;26.20;;;4.60;;
249;SDS011;109;19.806;-70.704;2022-07-29T06:16:24;27.07;;;4.70;;
249;SDS011;109;19.806;-70.704;2022-07-29T06:19:04;6.43;;;3.03;;
249;SDS011;109;19.806;-70.704;2022-07-29T06:21:30;35.03;;;4.03;;
249;SDS011;109;19.806;-70.704;2022-07-29T06:24:11;15.37;;;3.93;;
249;SDS011;109;19.806;-70.704;2022-07-29T06:26:39;19.80;;;4.23;;
249;SDS011;109;19.806;-70.704;2022-07-29T06:29:26;13.17;;;3.57;;
249;SDS011;109;19.806;-70.704;2022-07-29T06:32:06;18.10;;;3.43;;
249;SDS011;109;19.806;-70.704;2022-07-29T06:34:45;13.40;;;3.10;;
249;SDS011;109;19.806;-70.704;2022-07-29T06:37:25;15.10;;;3.70;;
249;SDS011;109;19.806;-70.704;2022-07-29T06:39:51;8.50;;;2.80;;
249;SDS011;109;19.806;-70.704;2022-07-29T06:42:50;7.60;;;2.90;;
249;SDS011;109;19.806;-70.704;2022-07-29T06:45:16;9.50;;;2.70;;
249;SDS011;109;19.806;-70.704;2022-07-29T06:47:56;13.27;;;3.20;;
249;SDS011;109;19.806;-70.704;2022-07-29T06:50:22;11.30;;;3.00;;
249;SDS011;109;19.806;-70.704;2022-07-29T06:53:02;8.13;;;3.00;;
249;SDS011;109;19.806;-70.704;2022-07-29T06:55:29;10.40;;;3.33;;
249;SDS011;109;19.806;-70.704;2022-07-29T06:58:10;15.50;;;3.90;;
249;SDS011;109;19.806;-70.704;2022-07-29T07:00:44;8.57;;;3.20;;
249;SDS011;109;19.806;-70.704;2022-07-29T07:03:25;15.20;;;3.37;;
249;SDS011;109;19.806;-70.704;2022-07-29T07:05:52;9.60;;;3.17;;
249;SDS011;109;19.806;-70.704;2022-07-29T07:08:32;8.93;;;3.00;;
249;SDS011;109;19.806;-70.704;2022-07-29T07:10:59;8.20;;;4.13;;
249;SDS011;109;19.806;-70.704;2022-07-29T07:13:39;16.17;;;4.00;;
249;SDS011;109;19.806;-70.704;2022-07-29T07:16:05;10.33;;;2.90;;
249;SDS011;109;19.806;-70.704;2022-07-29T07:18:45;14.40;;;3.00;;
249;SDS011;109;19.806;-70.704;2022-07-29T07:21:12;12.37;;;3.13;;
249;SDS011;109;19.806;-70.704;2022-07-29T07:23:52;20.53;;;3.87;;
249;SDS011;109;19.806;-70.704;2022-07-29T07:26:18;11.77;;;3.20;;
249;SDS011;109;19.806;-70.704;2022-07-29T07:29:06;10.60;;;3.87;;
249;SDS011;109;19.806;-70.704;2022-07-29T07:31:39;11.50;;;3.30;;
249;SDS011;109;19.806;-70.704;2022-07-29T07:34:26;11.27;;;3.00;;
249;SDS011;109;19.806;-70.704;2022-07-29T07:36:59;11.47;;;3.43;;
249;SDS011;109;19.806;-70.704;2022-07-29T07:39:55;10.33;;;4.20;;
249;SDS011;109;19.806;-70.704;2022-07-29T07:42:34;10.10;;;3.20;;
249;SDS011;109;19.806;-70.704;2022-07-29T07:45:00;14.17;;;3.50;;
249;SDS011;109;19.806;-70.704;2022-07-29T07:47:44;9.10;;;3.23;;
249;SDS011;109;19.806;-70.704;2022-07-29T07:50:11;8.97;;;3.03;;
249;SDS011;109;19.806;-70.704;2022-07-29T07:52:52;9.90;;;3.37;;
249;SDS011;109;19.806;-70.704;2022-07-29T07:55:29;11.60;;;3.67;;
249;SDS011;109;19.806;-70.704;2022-07-29T07:58:10;12.43;;;3.77;;
249;SDS011;109;19.806;-70.704;2022-07-29T08:00:37;16.03;;;3.97;;
249;SDS011;109;19.806;-70.704;2022-07-29T08:03:25;12.07;;;4.10;;
249;SDS011;109;19.806;-70.704;2022-07-29T08:05:58;12.60;;;4.30;;
249;SDS011;109;19.806;-70.704;2022-07-29T08:08:38;14.63;;;3.90;;
249;SDS011;109;19.806;-70.704;2022-07-29T08:11:04;14.83;;;3.93;;
249;SDS011;109;19.806;-70.704;2022-07-29T08:13:44;16.53;;;4.00;;
249;SDS011;109;19.806;-70.704;2022-07-29T08:16:12;20.40;;;4.43;;
249;SDS011;109;19.806;-70.704;2022-07-29T08:18:53;10.27;;;3.60;;
249;SDS011;109;19.806;-70.704;2022-07-29T08:21:22;15.73;;;3.70;;
249;SDS011;109;19.806;-70.704;2022-07-29T08:24:03;7.33;;;3.70;;
249;SDS011;109;19.806;-70.704;2022-07-29T08:26:55;17.83;;;4.07;;
249;SDS011;109;19.806;-70.704;2022-07-29T08:29:42;15.87;;;4.70;;
249;SDS011;109;19.806;-70.704;2022-07-29T08:32:21;12.23;;;3.97;;
249;SDS011;109;19.806;-70.704;2022-07-29T08:34:48;16.03;;;4.03;;
249;SDS011;109;19.806;-70.704;2022-07-29T08:37:29;16.57;;;4.73;;
249;SDS011;109;19.806;-70.704;2022-07-29T08:39:56;21.33;;;5.30;;
249;SDS011;109;19.806;-70.704;2022-07-29T08:42:38;16.10;;;3.40;;
249;SDS011;109;19.806;-70.704;2022-07-29T08:45:05;21.73;;;4.50;;
249;SDS011;109;19.806;-70.704;2022-07-29T08:47:45;15.60;;;4.20;;
249;SDS011;109;19.806;-70.704;2022-07-29T08:50:12;18.80;;;4.60;;
249;SDS011;109;19.806;-70.704;2022-07-29T08:52:51;10.93;;;4.00;;
249;SDS011;109;19.806;-70.704;2022-07-29T08:55:18;26.33;;;5.00;;
249;SDS011;109;19.806;-70.704;2022-07-29T08:57:58;10.03;;;4.17;;
249;SDS011;109;19.806;-70.704;2022-07-29T09:00:33;12.23;;;3.90;;
249;SDS011;109;19.806;-70.704;2022-07-29T09:03:15;10.63;;;4.47;;
249;SDS011;109;19.806;-70.704;2022-07-29T09:05:54;15.70;;;4.37;;
249;SDS011;109;19.806;-70.704;2022-07-29T09:08:34;18.00;;;4.00;;
249;SDS011;109;19.806;-70.704;2022-07-29T09:11:01;12.63;;;4.30;;
249;SDS011;109;19.806;-70.704;2022-07-29T09:13:43;21.90;;;5.83;;
249;SDS011;109;19.806;-70.704;2022-07-29T09:16:10;15.70;;;4.20;;
249;SDS011;109;19.806;-70.704;2022-07-29T09:18:50;21.60;;;4.10;;
249;SDS011;109;19.806;-70.704;2022-07-29T09:21:17;13.73;;;3.93;;
249;SDS011;109;19.806;-70.704;2022-07-29T09:24:16;10.40;;;3.83;;
249;SDS011;109;19.806;-70.704;2022-07-29T09:26:43;14.63;;;3.57;;
249;SDS011;109;19.806;-70.704;2022-07-29T09:29:31;12.93;;;4.10;;
249;SDS011;109;19.806;-70.704;2022-07-29T09:32:05;14.87;;;4.50;;
249;SDS011;109;19.806;-70.704;2022-07-29T09:34:47;15.40;;;5.17;;
249;SDS011;109;19.806;-70.704;2022-07-29T09:37:28;23.23;;;4.47;;
249;SDS011;109;19.806;-70.704;2022-07-29T09:39:55;15.43;;;4.57;;
249;SDS011;109;19.806;-70.704;2022-07-29T09:42:36;15.37;;;4.57;;
249;SDS011;109;19.806;-70.704;2022-07-29T09:45:03;24.30;;;5.30;;
249;SDS011;109;19.806;-70.704;2022-07-29T09:47:44;22.13;;;4.87;;
249;SDS011;109;19.806;-70.704;2022-07-29T09:50:35;15.70;;;4.60;;
249;SDS011;109;19.806;-70.704;2022-07-29T09:56:04;11.03;;;4.03;;
249;SDS011;109;19.806;-70.704;2022-07-29T09:58:46;21.00;;;5.20;;
249;SDS011;109;19.806;-70.704;2022-07-29T10:01:12;17.03;;;4.43;;
249;SDS011;109;19.806;-70.704;2022-07-29T10:03:52;15.60;;;4.20;;
249;SDS011;109;19.806;-70.704;2022-07-29T10:06:19;13.30;;;3.70;;
249;SDS011;109;19.806;-70.704;2022-07-29T10:09:10;17.20;;;4.13;;
249;SDS011;109;19.806;-70.704;2022-07-29T10:11:44;14.50;;;3.63;;
249;SDS011;109;19.806;-70.704;2022-07-29T10:14:53;18.90;;;4.30;;
249;SDS011;109;19.806;-70.704;2022-07-29T10:17:33;17.23;;;4.50;;
249;SDS011;109;19.806;-70.704;2022-07-29T10:19:59;11.67;;;4.70;;
249;SDS011;109;19.806;-70.704;2022-07-29T10:22:40;19.17;;;4.70;;
249;SDS011;109;19.806;-70.704;2022-07-29T10:25:08;17.73;;;4.70;;
249;SDS011;109;19.806;-70.704;2022-07-29T10:31:31;14.20;;;3.53;;
249;SDS011;109;19.806;-70.704;2022-07-29T10:40:30;18.00;;;4.77;;
249;SDS011;109;19.806;-70.704;2022-07-29T10:43:36;21.90;;;4.83;;
249;SDS011;109;19.806;-70.704;2022-07-29T10:46:13;21.03;;;4.73;;
249;SDS011;109;19.806;-70.704;2022-07-29T10:49:39;18.93;;;5.00;;
249;SDS011;109;19.806;-70.704;2022-07-29T10:52:07;21.23;;;4.63;;
249;SDS011;109;19.806;-70.704;2022-07-29T10:54:44;23.50;;;6.23;;
249;SDS011;109;19.806;-70.704;2022-07-29T10:57:28;20.10;;;4.60;;
249;SDS011;109;19.806;-70.704;2022-07-29T11:02:43;23.70;;;5.43;;
249;SDS011;109;19.806;-70.704;2022-07-29T11:05:23;25.80;;;5.83;;
249;SDS011;109;19.806;-70.704;2022-07-29T11:10:45;19.23;;;4.77;;
249;SDS011;109;19.806;-70.704;2022-07-29T11:17:18;18.50;;;4.93;;
249;SDS011;109;19.806;-70.704;2022-07-29T11:20:44;12.10;;;4.17;;
249;SDS011;109;19.806;-70.704;2022-07-29T11:28:59;10.20;;;3.53;;
249;SDS011;109;19.806;-70.704;2022-07-29T11:31:41;8.43;;;3.23;;
249;SDS011;109;19.806;-70.704;2022-07-29T11:34:30;7.00;;;3.30;;
249;SDS011;109;19.806;-70.704;2022-07-29T11:45:13;26.27;;;5.10;;
249;SDS011;109;19.806;-70.704;2022-07-29T11:47:50;19.97;;;4.80;;
249;SDS011;109;19.806;-70.704;2022-07-29T11:50:41;24.70;;;4.70;;
249;SDS011;109;19.806;-70.704;2022-07-29T11:53:13;32.13;;;5.87;;
249;SDS011;109;19.806;-70.704;2022-07-29T11:55:54;30.80;;;5.70;;
249;SDS011;109;19.806;-70.704;2022-07-29T11:58:22;27.40;;;5.83;;
249;SDS011;109;19.806;-70.704;2022-07-29T12:01:01;28.47;;;5.23;;
249;SDS011;109;19.806;-70.704;2022-07-29T12:03:33;17.70;;;4.50;;
249;SDS011;109;19.806;-70.704;2022-07-29T12:06:14;18.73;;;5.87;;
249;SDS011;109;19.806;-70.704;2022-07-29T12:08:54;25.17;;;6.40;;
249;SDS011;109;19.806;-70.704;2022-07-29T12:11:21;22.73;;;5.87;;
249;SDS011;109;19.806;-70.704;2022-07-29T12:14:00;26.00;;;5.53;;
249;SDS011;109;19.806;-70.704;2022-07-29T12:16:34;16.10;;;4.40;;
249;SDS011;109;19.806;-70.704;2022-07-29T12:19:15;24.33;;;4.93;;
249;SDS011;109;19.806;-70.704;2022-07-29T12:24:42;21.00;;;4.87;;
249;SDS011;109;19.806;-70.704;2022-07-29T12:27:16;14.53;;;4.43;;
249;SDS011;109;19.806;-70.704;2022-07-29T12:30:08;19.00;;;5.40;;
249;SDS011;109;19.806;-70.704;2022-07-29T12:32:50;17.43;;;3.80;;
249;SDS011;109;19.806;-70.704;2022-07-29T12:35:30;19.50;;;4.50;;
249;SDS011;109;19.806;-70.704;2022-07-29T12:38:04;17.73;;;4.03;;
249;SDS011;109;19.806;-70.704;2022-07-29T12:40:45;21.80;;;4.07;;
249;SDS011;109;19.806;-70.704;2022-07-29T12:43:15;20.77;;;4.40;;
249;SDS011;109;19.806;-70.704;2022-07-29T12:46:00;28.70;;;5.57;;
249;SDS011;109;19.806;-70.704;2022-07-29T12:48:53;30.17;;;4.97;;
249;SDS011;109;19.806;-70.704;2022-07-29T12:51:33;20.97;;;5.00;;
249;SDS011;109;19.806;-70.704;2022-07-29T12:54:15;20.67;;;5.43;;
249;SDS011;109;19.806;-70.704;2022-07-29T12:56:42;17.77;;;5.73;;
249;SDS011;109;19.806;-70.704;2022-07-29T12:59:23;28.10;;;5.10;;
249;SDS011;109;19.806;-70.704;2022-07-29T13:01:50;28.87;;;5.13;;
249;SDS011;109;19.806;-70.704;2022-07-29T13:04:33;23.73;;;5.30;;
249;SDS011;109;19.806;-70.704;2022-07-29T13:07:12;21.30;;;4.93;;
249;SDS011;109;19.806;-70.704;2022-07-29T13:09:52;27.73;;;4.70;;
249;SDS011;109;19.806;-70.704;2022-07-29T13:12:19;14.20;;;4.43;;
249;SDS011;109;19.806;-70.704;2022-07-29T13:14:59;15.30;;;3.90;;
249;SDS011;109;19.806;-70.704;2022-07-29T13:17:26;20.10;;;4.57;;
249;SDS011;109;19.806;-70.704;2022-07-29T13:20:08;27.13;;;4.67;;
249;SDS011;109;19.806;-70.704;2022-07-29T13:22:52;18.80;;;4.77;;
249;SDS011;109;19.806;-70.704;2022-07-29T13:25:33;22.80;;;5.00;;
249;SDS011;109;19.806;-70.704;2022-07-29T13:27:59;21.80;;;4.63;;
249;SDS011;109;19.806;-70.704;2022-07-29T13:30:46;24.10;;;5.17;;
249;SDS011;109;19.806;-70.704;2022-07-29T13:33:25;21.33;;;4.20;;
249;SDS011;109;19.806;-70.704;2022-07-29T13:36:05;16.87;;;4.07;;
249;SDS011;109;19.806;-70.704;2022-07-29T13:38:32;22.00;;;4.33;;
249;SDS011;109;19.806;-70.704;2022-07-29T13:41:12;27.33;;;4.67;;
249;SDS011;109;19.806;-70.704;2022-07-29T13:43:39;19.67;;;4.30;;
249;SDS011;109;19.806;-70.704;2022-07-29T13:46:18;23.40;;;5.47;;
249;SDS011;109;19.806;-70.704;2022-07-29T13:48:45;36.03;;;5.77;;
249;SDS011;109;19.806;-70.704;2022-07-29T13:51:25;19.73;;;5.10;;
249;SDS011;109;19.806;-70.704;2022-07-29T13:53:53;23.10;;;4.53;;
249;SDS011;109;19.806;-70.704;2022-07-29T13:56:20;17.20;;;3.50;;
249;SDS011;109;19.806;-70.704;2022-07-29T13:58:46;13.43;;;3.27;;
249;SDS011;109;19.806;-70.704;2022-07-29T14:01:12;11.60;;;3.40;;
249;SDS011;109;19.806;-70.704;2022-07-29T14:03:39;11.33;;;3.63;;
249;SDS011;109;19.806;-70.704;2022-07-29T14:06:07;14.20;;;3.70;;
249;SDS011;109;19.806;-70.704;2022-07-29T14:08:33;18.03;;;4.20;;
249;SDS011;109;19.806;-70.704;2022-07-29T14:11:00;12.30;;;3.10;;
249;SDS011;109;19.806;-70.704;2022-07-29T14:13:26;12.77;;;3.10;;
249;SDS011;109;19.806;-70.704;2022-07-29T14:15:52;17.03;;;4.17;;
249;SDS011;109;19.806;-70.704;2022-07-29T14:18:19;14.40;;;4.30;;
249;SDS011;109;19.806;-70.704;2022-07-29T14:20:45;17.10;;;3.63;;
249;SDS011;109;19.806;-70.704;2022-07-29T14:23:12;30.83;;;4.90;;
249;SDS011;109;19.806;-70.704;2022-07-29T14:25:39;13.37;;;4.07;;
249;SDS011;109;19.806;-70.704;2022-07-29T14:28:05;12.90;;;3.70;;
249;SDS011;109;19.806;-70.704;2022-07-29T14:30:31;15.23;;;3.80;;
249;SDS011;109;19.806;-70.704;2022-07-29T14:32:58;16.87;;;3.57;;
249;SDS011;109;19.806;-70.704;2022-07-29T14:35:24;22.23;;;4.27;;
249;SDS011;109;19.806;-70.704;2022-07-29T14:37:51;20.80;;;4.40;;
249;SDS011;109;19.806;-70.704;2022-07-29T14:40:17;17.27;;;3.90;;
249;SDS011;109;19.806;-70.704;2022-07-29T14:42:43;19.50;;;4.37;;
249;SDS011;109;19.806;-70.704;2022-07-29T14:45:10;29.30;;;5.30;;
249;SDS011;109;19.806;-70.704;2022-07-29T14:47:37;25.00;;;4.47;;
249;SDS011;109;19.806;-70.704;2022-07-29T14:50:04;21.23;;;4.10;;
249;SDS011;109;19.806;-70.704;2022-07-29T14:52:32;22.37;;;4.63;;
249;SDS011;109;19.806;-70.704;2022-07-29T14:54:58;21.97;;;5.00;;
249;SDS011;109;19.806;-70.704;2022-07-29T14:57:25;14.57;;;4.50;;
249;SDS011;109;19.806;-70.704;2022-07-29T14:59:51;25.70;;;4.60;;
249;SDS011;109;19.806;-70.704;2022-07-29T15:02:18;20.70;;;3.70;;
249;SDS011;109;19.806;-70.704;2022-07-29T15:04:44;14.80;;;4.27;;
249;SDS011;109;19.806;-70.704;2022-07-29T15:07:13;23.73;;;4.87;;
249;SDS011;109;19.806;-70.704;2022-07-29T15:09:41;16.90;;;4.43;;
249;SDS011;109;19.806;-70.704;2022-07-29T15:12:08;14.90;;;3.93;;
249;SDS011;109;19.806;-70.704;2022-07-29T15:14:36;31.67;;;5.80;;
249;SDS011;109;19.806;-70.704;2022-07-29T15:17:02;24.30;;;4.37;;
249;SDS011;109;19.806;-70.704;2022-07-29T15:19:29;27.87;;;4.93;;
249;SDS011;109;19.806;-70.704;2022-07-29T15:21:55;25.50;;;4.80;;
249;SDS011;109;19.806;-70.704;2022-07-29T15:24:21;31.33;;;4.60;;
249;SDS011;109;19.806;-70.704;2022-07-29T15:26:48;21.40;;;4.90;;
249;SDS011;109;19.806;-70.704;2022-07-29T15:29:14;24.23;;;4.43;;
249;SDS011;109;19.806;-70.704;2022-07-29T15:31:41;32.43;;;5.23;;
249;SDS011;109;19.806;-70.704;2022-07-29T15:34:08;12.50;;;3.10;;
249;SDS011;109;19.806;-70.704;2022-07-29T15:36:35;13.80;;;2.87;;
249;SDS011;109;19.806;-70.704;2022-07-29T15:39:01;5.43;;;2.57;;
249;SDS011;109;19.806;-70.704;2022-07-29T15:41:28;5.57;;;3.20;;
249;SDS011;109;19.806;-70.704;2022-07-29T15:43:54;7.67;;;3.07;;
249;SDS011;109;19.806;-70.704;2022-07-29T15:46:21;8.90;;;2.63;;
249;SDS011;109;19.806;-70.704;2022-07-29T15:49:06;9.03;;;3.53;;
249;SDS011;109;19.806;-70.704;2022-07-29T15:51:33;11.07;;;3.60;;
249;SDS011;109;19.806;-70.704;2022-07-29T15:54:03;9.40;;;4.40;;
249;SDS011;109;19.806;-70.704;2022-07-29T15:56:30;9.30;;;3.00;;
249;SDS011;109;19.806;-70.704;2022-07-29T15:58:57;10.17;;;3.77;;
249;SDS011;109;19.806;-70.704;2022-07-29T16:01:23;25.83;;;4.97;;
249;SDS011;109;19.806;-70.704;2022-07-29T16:03:50;18.17;;;4.47;;
249;SDS011;109;19.806;-70.704;2022-07-29T16:06:16;23.10;;;5.03;;
249;SDS011;109;19.806;-70.704;2022-07-29T16:08:43;18.27;;;4.30;;
249;SDS011;109;19.806;-70.704;2022-07-29T16:11:09;17.77;;;4.23;;
249;SDS011;109;19.806;-70.704;2022-07-29T16:13:36;14.93;;;4.30;;
249;SDS011;109;19.806;-70.704;2022-07-29T16:16:02;15.37;;;3.67;;
249;SDS011;109;19.806;-70.704;2022-07-29T16:18:29;20.60;;;4.03;;
249;SDS011;109;19.806;-70.704;2022-07-29T16:20:55;24.13;;;4.60;;
249;SDS011;109;19.806;-70.704;2022-07-29T16:23:22;19.10;;;3.40;;
249;SDS011;109;19.806;-70.704;2022-07-29T16:25:49;28.17;;;4.40;;
249;SDS011;109;19.806;-70.704;2022-07-29T16:28:15;15.90;;;3.73;;
249;SDS011;109;19.806;-70.704;2022-07-29T16:30:42;18.50;;;3.60;;
249;SDS011;109;19.806;-70.704;2022-07-29T16:33:08;19.00;;;4.70;;
249;SDS011;109;19.806;-70.704;2022-07-29T16:35:35;13.03;;;3.43;;
249;SDS011;109;19.806;-70.704;2022-07-29T16:38:04;26.87;;;3.70;;
249;SDS011;109;19.806;-70.704;2022-07-29T16:40:31;22.60;;;4.10;;